createdAt,value
2018-02-01T00:01:28.185Z,0.80
2018-02-01T00:03:56.529Z,0.70
2018-02-01T00:06:24.124Z,1.00
2018-02-01T00:08:52.498Z,1.37
2018-02-01T00:11:20.845Z,0.80
2018-02-01T00:13:48.514Z,1.77
2018-02-01T00:16:16.105Z,0.90
2018-02-01T00:18:44.458Z,0.97
2018-02-01T00:21:12.099Z,1.90
2018-02-01T00:23:39.709Z,0.60
2018-02-01T00:26:07.302Z,1.07
2018-02-01T00:28:34.903Z,0.90
2018-02-01T00:31:02.507Z,0.70
2018-02-01T00:33:30.105Z,0.60
2018-02-01T00:36:15.488Z,1.90
2018-02-01T00:38:43.098Z,1.00
2018-02-01T00:41:10.661Z,2.00
2018-02-01T00:43:38.238Z,1.40
2018-02-01T00:46:05.839Z,1.50
2018-02-01T00:48:33.428Z,1.23
2018-02-01T00:51:01.055Z,1.20
2018-02-01T00:53:28.648Z,0.80
2018-02-01T00:55:56.340Z,0.80
2018-02-01T00:58:23.929Z,2.10
2018-02-01T01:00:51.546Z,0.70
2018-02-01T01:03:19.146Z,2.70
2018-02-01T01:05:46.760Z,1.07
2018-02-01T01:08:14.328Z,3.13
2018-02-01T01:10:41.896Z,1.00
2018-02-01T01:13:09.512Z,1.47
2018-02-01T01:15:37.091Z,1.20
2018-02-01T01:18:05.477Z,2.33
2018-02-01T01:20:33.109Z,0.87
2018-02-01T01:23:01.505Z,0.87
2018-02-01T01:25:29.869Z,2.20
2018-02-01T01:27:58.226Z,1.80
2018-02-01T01:30:25.834Z,1.67
2018-02-01T01:32:53.412Z,1.00
2018-02-01T01:35:21.840Z,1.27
2018-02-01T01:37:49.412Z,1.27
2018-02-01T01:40:17.789Z,2.57
2018-02-01T01:42:46.194Z,1.60
2018-02-01T01:45:13.797Z,1.07
2018-02-01T01:47:41.389Z,1.07
2018-02-01T01:50:09.774Z,2.13
2018-02-01T01:52:38.125Z,0.70
2018-02-01T01:55:05.709Z,0.87
2018-02-01T01:57:34.078Z,0.90
2018-02-01T02:00:01.648Z,1.53
2018-02-01T02:02:30.014Z,1.03
2018-02-01T02:04:57.613Z,2.00
2018-02-01T02:07:25.205Z,2.20
2018-02-01T02:09:53.536Z,0.70
2018-02-01T02:12:21.241Z,4.07
2018-02-01T02:14:48.842Z,1.80
2018-02-01T02:17:17.185Z,0.67
2018-02-01T02:19:45.545Z,0.70
2018-02-01T02:22:13.128Z,0.60
2018-02-01T02:24:40.732Z,1.03
2018-02-01T02:27:09.088Z,0.70
2018-02-01T02:29:36.666Z,0.50
2018-02-01T02:32:05.038Z,0.60
2018-02-01T02:34:33.398Z,0.60
2018-02-01T02:37:00.989Z,1.00
2018-02-01T02:39:28.585Z,1.00
2018-02-01T02:41:56.176Z,0.73
2018-02-01T02:44:23.757Z,0.50
2018-02-01T02:46:52.120Z,0.60
2018-02-01T02:49:19.724Z,1.07
2018-02-01T02:51:47.445Z,0.70
2018-02-01T02:54:15.024Z,1.93
2018-02-01T02:56:44.938Z,0.50
2018-02-01T02:59:13.278Z,0.50
2018-02-01T03:01:40.877Z,0.53
2018-02-01T03:04:09.240Z,0.50
2018-02-01T03:06:37.592Z,0.93
2018-02-01T03:09:05.175Z,0.50
2018-02-01T03:11:32.741Z,0.83
2018-02-01T03:14:01.092Z,0.57
2018-02-01T03:16:28.658Z,0.50
2018-02-01T03:18:56.248Z,0.50
2018-02-01T03:21:24.592Z,0.40
2018-02-01T03:23:52.184Z,0.40
2018-02-01T03:26:20.553Z,0.50
2018-02-01T03:28:48.957Z,0.50
2018-02-01T03:31:16.528Z,0.50
2018-02-01T03:33:44.106Z,1.80
2018-02-01T03:36:11.700Z,0.40
2018-02-01T03:38:39.308Z,1.97
2018-02-01T03:41:06.905Z,0.60
2018-02-01T03:43:34.505Z,0.50
2018-02-01T03:46:02.939Z,0.43
2018-02-01T03:48:30.512Z,0.47
2018-02-01T03:50:58.106Z,0.57
2018-02-01T03:53:26.468Z,0.57
2018-02-01T03:55:54.893Z,0.40
2018-02-01T03:58:22.464Z,0.50
2018-02-01T04:00:50.064Z,0.40
2018-02-01T04:03:17.729Z,0.40
2018-02-01T04:05:45.311Z,0.40
2018-02-01T04:08:12.899Z,0.40
2018-02-01T04:10:40.501Z,0.40
2018-02-01T04:13:08.129Z,0.40
2018-02-01T04:15:35.781Z,0.40
2018-02-01T04:18:03.360Z,0.40
2018-02-01T04:20:31.744Z,0.40
2018-02-01T04:22:59.615Z,1.40
2018-02-01T04:25:27.462Z,0.70
2018-02-01T04:27:55.061Z,0.50
2018-02-01T04:30:23.421Z,0.40
2018-02-01T04:32:51.029Z,0.47
2018-02-01T04:35:18.614Z,0.40
2018-02-01T04:37:46.222Z,0.43
2018-02-01T04:40:13.820Z,0.40
2018-02-01T04:42:41.403Z,0.40
2018-02-01T04:45:09.005Z,1.80
2018-02-01T04:47:37.423Z,0.30
2018-02-01T04:50:05.016Z,0.40
2018-02-01T04:52:32.632Z,0.40
2018-02-01T04:55:00.263Z,0.40
2018-02-01T04:57:28.641Z,0.40
2018-02-01T04:59:56.992Z,0.40
2018-02-01T05:02:24.594Z,0.40
2018-02-01T05:04:52.931Z,0.30
2018-02-01T05:07:20.505Z,0.40
2018-02-01T05:09:48.107Z,0.30
2018-02-01T05:12:15.708Z,0.50
2018-02-01T05:14:43.315Z,0.40
2018-02-01T05:17:11.651Z,0.30
2018-02-01T05:19:39.583Z,0.50
2018-02-01T05:22:07.168Z,0.40
2018-02-01T05:24:34.758Z,0.40
2018-02-01T05:27:02.336Z,0.47
2018-02-01T05:29:30.782Z,0.40
2018-02-01T05:31:58.371Z,0.83
2018-02-01T05:34:26.796Z,38.30
2018-02-01T05:36:55.119Z,27.07
2018-02-01T05:39:23.513Z,17.57
2018-02-01T05:41:51.109Z,2.63
2018-02-01T05:44:18.701Z,0.93
2018-02-01T05:46:46.299Z,0.50
2018-02-01T05:49:13.873Z,0.50
2018-02-01T05:51:41.472Z,0.53
2018-02-01T05:54:09.057Z,0.50
2018-02-01T05:56:36.657Z,0.40
2018-02-01T05:59:04.233Z,0.43
2018-02-01T06:01:31.832Z,0.40
2018-02-01T06:03:59.417Z,0.40
2018-02-01T06:06:27.785Z,1.70
2018-02-01T06:08:56.129Z,4.00
2018-02-01T06:11:23.717Z,7.17
2018-02-01T06:13:51.361Z,1.70
2018-02-01T06:16:18.954Z,2.70
2018-02-01T06:18:47.337Z,2.90
2018-02-01T06:21:14.924Z,2.50
2018-02-01T06:23:42.536Z,0.70
2018-02-01T06:26:10.109Z,0.60
2018-02-01T06:28:38.489Z,0.70
2018-02-01T06:31:06.838Z,2.13
2018-02-01T06:33:34.438Z,1.97
2018-02-01T06:36:02.016Z,3.97
2018-02-01T06:38:29.620Z,2.03
2018-02-01T06:40:57.193Z,1.67
2018-02-01T06:43:24.789Z,4.37
2018-02-01T06:45:52.404Z,6.03
2018-02-01T06:48:20.005Z,3.63
2018-02-01T06:50:47.601Z,1.10
2018-02-01T06:53:15.212Z,6.33
2018-02-01T06:55:43.559Z,2.30
2018-02-01T06:58:11.125Z,1.47
2018-02-01T07:00:59.461Z,24.03
2018-02-01T07:03:27.076Z,0.90
2018-02-01T07:05:54.649Z,3.90
2018-02-01T07:08:22.250Z,1.37
2018-02-01T07:10:49.874Z,2.90
2018-02-01T07:13:17.481Z,3.00
2018-02-01T07:15:45.824Z,3.83
2018-02-01T07:18:13.545Z,2.80
2018-02-01T07:20:41.997Z,2.27
2018-02-01T07:23:10.333Z,7.37
2018-02-01T07:25:37.944Z,2.03
2018-02-01T07:28:06.281Z,2.50
2018-02-01T07:30:33.895Z,1.83
2018-02-01T07:33:02.229Z,1.93
2018-02-01T07:35:29.810Z,1.20
2018-02-01T07:37:58.188Z,1.77
2018-02-01T07:40:25.757Z,4.27
2018-02-01T07:42:54.182Z,1.40
2018-02-01T07:45:21.808Z,2.30
2018-02-01T07:47:50.162Z,3.50
2018-02-01T07:50:17.732Z,4.27
2018-02-01T07:52:46.109Z,4.33
2018-02-01T07:55:14.464Z,3.20
2018-02-01T07:57:42.074Z,4.20
2018-02-01T08:00:09.663Z,5.03
2018-02-01T08:02:37.264Z,3.10
2018-02-01T08:05:05.042Z,3.23
2018-02-01T08:07:33.404Z,2.50
2018-02-01T08:10:01.008Z,3.10
2018-02-01T08:12:28.609Z,1.97
2018-02-01T08:14:56.193Z,1.90
2018-02-01T08:17:24.569Z,1.60
2018-02-01T08:19:52.938Z,4.23
2018-02-01T08:22:20.513Z,2.77
2018-02-01T08:24:48.864Z,3.40
2018-02-01T08:27:16.457Z,2.37
2018-02-01T08:29:44.802Z,1.90
2018-02-01T08:32:12.407Z,2.80
2018-02-01T08:34:39.976Z,4.93
2018-02-01T08:37:07.621Z,3.97
2018-02-01T08:39:35.974Z,3.97
2018-02-01T08:42:03.573Z,1.67
2018-02-01T08:44:31.150Z,2.23
2018-02-01T08:46:58.789Z,1.83
2018-02-01T08:49:26.377Z,1.93
2018-02-01T08:51:54.013Z,1.40
2018-02-01T08:54:21.630Z,1.27
2018-02-01T08:56:49.233Z,1.30
2018-02-01T08:59:16.919Z,1.97
2018-02-01T09:01:44.493Z,1.93
2018-02-01T09:04:12.097Z,1.77
2018-02-01T09:06:40.436Z,2.07
2018-02-01T09:09:08.038Z,1.30
2018-02-01T09:11:36.404Z,0.97
2018-02-01T09:14:04.014Z,1.43
2018-02-01T09:16:31.605Z,1.27
2018-02-01T09:18:59.222Z,1.00
2018-02-01T09:21:26.805Z,1.23
2018-02-01T09:23:54.409Z,0.80
2018-02-01T09:26:22.777Z,1.07
2018-02-01T09:28:50.356Z,1.37
2018-02-01T09:31:18.725Z,0.80
2018-02-01T09:33:47.087Z,0.70
2018-02-01T09:36:14.689Z,1.07
2018-02-01T09:38:42.264Z,1.10
2018-02-01T09:41:09.873Z,0.60
2018-02-01T09:43:37.469Z,0.80
2018-02-01T09:46:05.072Z,0.70
2018-02-01T09:48:33.410Z,0.77
2018-02-01T09:51:00.982Z,0.70
2018-02-01T09:53:28.602Z,0.60
2018-02-01T09:55:56.949Z,0.93
2018-02-01T09:58:24.560Z,1.13
2018-02-01T10:00:52.149Z,0.90
2018-02-01T10:03:19.738Z,0.80
2018-02-01T10:05:47.329Z,0.80
2018-02-01T10:08:15.676Z,1.37
2018-02-01T10:10:43.305Z,0.70
2018-02-01T10:13:10.885Z,0.67
2018-02-01T10:15:38.462Z,0.83
2018-02-01T10:18:06.065Z,0.83
2018-02-01T10:20:33.644Z,0.70
2018-02-01T10:23:01.230Z,0.80
2018-02-01T10:25:28.848Z,0.93
2018-02-01T10:27:56.456Z,0.80
2018-02-01T10:30:24.028Z,0.80
2018-02-01T10:32:51.634Z,0.80
2018-02-01T10:35:20.022Z,1.40
2018-02-01T10:37:47.637Z,12.13
2018-02-01T10:40:15.997Z,0.90
2018-02-01T10:42:43.602Z,1.00
2018-02-01T10:45:11.198Z,11.60
2018-02-01T10:47:38.803Z,2.87
2018-02-01T10:50:07.520Z,1.03
2018-02-01T10:52:35.119Z,1.00
2018-02-01T10:55:02.773Z,0.90
2018-02-01T10:57:30.377Z,1.50
2018-02-01T10:59:58.785Z,1.70
2018-02-01T11:02:27.093Z,1.43
2018-02-01T11:04:54.697Z,0.73
2018-02-01T11:07:23.038Z,1.40
2018-02-01T11:09:50.673Z,0.87
2018-02-01T11:12:18.257Z,0.93
2018-02-01T11:14:45.849Z,1.03
2018-02-01T11:17:14.234Z,4.87
2018-02-01T11:19:42.601Z,6.40
2018-02-01T11:22:11.234Z,0.60
2018-02-01T11:24:38.878Z,1.10
2018-02-01T11:27:06.479Z,1.00
2018-02-01T11:29:34.060Z,1.60
2018-02-01T11:32:02.067Z,2.20
2018-02-01T11:34:29.844Z,1.30
2018-02-01T11:36:57.511Z,3.50
2018-02-01T11:39:25.109Z,5.87
2018-02-01T11:41:52.700Z,3.10
2018-02-01T11:44:20.987Z,1.20
2018-02-01T11:46:48.634Z,2.80
2018-02-01T11:49:16.234Z,3.03
2018-02-01T11:51:43.829Z,1.90
2018-02-01T11:54:11.496Z,2.87
2018-02-01T11:56:39.109Z,1.13
2018-02-01T11:59:06.709Z,1.40
2018-02-01T12:01:34.304Z,3.20
2018-02-01T12:04:01.899Z,2.47
2018-02-01T12:06:29.496Z,2.67
2018-02-01T12:08:57.102Z,5.60
2018-02-01T12:11:24.688Z,12.67
2018-02-01T12:13:52.293Z,20.40
2018-02-01T12:16:19.929Z,15.37
2018-02-01T12:18:47.538Z,6.30
2018-02-01T12:21:15.153Z,10.37
2018-02-01T12:23:42.773Z,3.93
2018-02-01T12:26:10.374Z,5.80
2018-02-01T12:28:37.986Z,2.20
2018-02-01T12:31:05.574Z,3.13
2018-02-01T12:33:33.164Z,1.07
2018-02-01T12:36:01.549Z,1.70
2018-02-01T12:38:29.930Z,2.00
2018-02-01T12:40:58.325Z,3.13
2018-02-01T12:43:25.894Z,2.37
2018-02-01T12:45:53.497Z,3.03
2018-02-01T12:48:21.081Z,2.60
2018-02-01T12:50:49.448Z,2.93
2018-02-01T12:53:17.024Z,3.77
2018-02-01T12:55:45.394Z,5.87
2018-02-01T12:58:13.761Z,4.03
2018-02-01T13:00:41.357Z,2.70
2018-02-01T13:03:08.961Z,3.63
2018-02-01T13:05:36.538Z,1.33
2018-02-01T13:08:04.143Z,8.13
2018-02-01T13:10:31.729Z,1.37
2018-02-01T13:12:59.324Z,3.40
2018-02-01T13:15:26.902Z,3.93
2018-02-01T13:17:55.287Z,3.00
2018-02-01T13:20:23.632Z,1.67
2018-02-01T13:22:51.225Z,2.40
2018-02-01T13:25:19.635Z,5.47
2018-02-01T13:27:47.252Z,5.17
2018-02-01T13:30:15.598Z,3.40
2018-02-01T13:32:43.188Z,2.53
2018-02-01T13:35:11.668Z,3.87
2018-02-01T13:37:39.270Z,2.87
2018-02-01T13:40:06.852Z,2.77
2018-02-01T13:42:34.450Z,2.93
2018-02-01T13:45:02.838Z,4.63
2018-02-01T13:47:31.189Z,4.33
2018-02-01T13:49:58.776Z,4.67
2018-02-01T13:52:27.132Z,2.03
2018-02-01T13:54:54.830Z,3.33
2018-02-01T13:57:22.401Z,2.23
2018-02-01T13:59:49.997Z,2.50
2018-02-01T14:02:17.578Z,4.23
2018-02-01T14:04:45.186Z,2.50
2018-02-01T14:07:12.852Z,2.57
2018-02-01T14:09:40.434Z,6.77
2018-02-01T14:12:08.038Z,2.50
2018-02-01T14:14:36.384Z,2.00
2018-02-01T14:17:04.069Z,3.33
2018-02-01T14:19:31.646Z,5.63
2018-02-01T14:22:00.031Z,4.43
2018-02-01T14:24:27.613Z,5.03
2018-02-01T14:26:55.227Z,7.63
2018-02-01T14:29:22.804Z,3.67
2018-02-01T14:31:51.174Z,6.07
2018-02-01T14:34:19.514Z,5.20
2018-02-01T14:36:47.118Z,2.27
2018-02-01T14:39:15.457Z,3.17
2018-02-01T14:41:43.100Z,4.17
2018-02-01T14:44:10.674Z,1.83
2018-02-01T14:46:38.276Z,2.50
2018-02-01T14:49:06.640Z,4.73
2018-02-01T14:51:35.008Z,3.60
2018-02-01T14:54:02.605Z,2.73
2018-02-01T14:56:30.179Z,3.70
2018-02-01T14:58:57.777Z,4.80
2018-02-01T15:01:25.376Z,3.30
2018-02-01T15:03:53.737Z,5.67
2018-02-01T15:06:21.328Z,2.97
2018-02-01T15:08:48.900Z,3.13
2018-02-01T15:11:16.512Z,2.97
2018-02-01T15:13:44.122Z,3.70
2018-02-01T15:16:11.717Z,4.47
2018-02-01T15:18:39.300Z,2.23
2018-02-01T15:21:07.672Z,4.47
2018-02-01T15:23:35.257Z,2.50
2018-02-01T15:26:03.609Z,3.20
2018-02-01T15:28:31.189Z,3.60
2018-02-01T15:30:59.524Z,5.23
2018-02-01T15:33:27.142Z,2.43
2018-02-01T15:35:54.747Z,3.57
2018-02-01T15:38:22.330Z,3.33
2018-02-01T15:40:49.969Z,3.37
2018-02-01T15:43:17.560Z,5.30
2018-02-01T15:45:45.925Z,1.97
2018-02-01T15:48:13.521Z,4.83
2018-02-01T15:50:41.105Z,6.13
2018-02-01T15:53:08.737Z,2.90
2018-02-01T15:55:36.405Z,5.97
2018-02-01T15:58:04.018Z,5.87
2018-02-01T16:00:31.620Z,13.60
2018-02-01T16:02:59.248Z,8.73
2018-02-01T16:05:26.816Z,8.57
2018-02-01T16:07:54.416Z,5.77
2018-02-01T16:10:21.989Z,8.17
2018-02-01T16:12:49.594Z,4.90
2018-02-01T16:15:17.938Z,4.13
2018-02-01T16:17:45.504Z,5.80
2018-02-01T16:20:13.922Z,6.10
2018-02-01T16:22:42.298Z,5.60
2018-02-01T16:25:10.658Z,7.63
2018-02-01T16:27:38.257Z,6.80
2018-02-01T16:30:05.851Z,4.40
2018-02-01T16:32:33.422Z,8.23
2018-02-01T16:35:01.032Z,9.73
2018-02-01T16:37:28.616Z,8.27
2018-02-01T16:39:56.199Z,6.77
2018-02-01T16:42:24.558Z,5.43
2018-02-01T16:44:52.161Z,5.37
2018-02-01T16:47:19.776Z,7.03
2018-02-01T16:49:47.357Z,38.63
2018-02-01T16:52:14.973Z,24.03
2018-02-01T16:54:42.617Z,15.50
2018-02-01T16:57:11.018Z,10.07
2018-02-01T16:59:38.588Z,7.77
2018-02-01T17:02:06.212Z,6.87
2018-02-01T17:04:34.572Z,8.03
2018-02-01T17:07:02.281Z,8.63
2018-02-01T17:09:29.879Z,5.93
2018-02-01T17:11:57.461Z,3.73
2018-02-01T17:14:25.037Z,4.30
2018-02-01T17:16:53.412Z,4.50
2018-02-01T17:19:21.760Z,4.67
2018-02-01T17:21:49.370Z,3.40
2018-02-01T17:24:16.957Z,8.87
2018-02-01T17:26:44.567Z,10.33
2018-02-01T17:29:12.942Z,10.93
2018-02-01T17:31:40.541Z,6.50
2018-02-01T17:34:08.146Z,7.93
2018-02-01T17:36:35.737Z,12.07
2018-02-01T17:39:04.247Z,13.97
2018-02-01T17:41:31.864Z,16.07
2018-02-01T17:43:59.476Z,16.27
2018-02-01T17:46:27.077Z,10.87
2018-02-01T17:48:54.717Z,11.53
2018-02-01T17:51:22.266Z,6.97
2018-02-01T17:53:51.558Z,6.13
2018-02-01T17:56:19.133Z,9.20
2018-02-01T17:58:46.769Z,13.30
2018-02-01T18:01:14.341Z,12.40
2018-02-01T18:03:41.928Z,13.20
2018-02-01T18:06:09.562Z,11.63
2018-02-01T18:08:37.151Z,8.70
2018-02-01T18:11:04.799Z,12.50
2018-02-01T18:13:32.349Z,11.40
2018-02-01T18:15:59.998Z,7.47
2018-02-01T18:18:27.599Z,10.43
2018-02-01T18:20:55.195Z,8.33
2018-02-01T18:23:22.860Z,7.67
2018-02-01T18:25:50.445Z,8.67
2018-02-01T18:28:18.073Z,11.17
2018-02-01T18:30:46.909Z,13.73
2018-02-01T18:33:14.525Z,12.17
2018-02-01T18:35:42.878Z,11.80
2018-02-01T18:38:10.497Z,8.07
2018-02-01T18:40:38.123Z,15.00
2018-02-01T18:43:06.473Z,9.90
2018-02-01T18:45:34.293Z,9.50
2018-02-01T18:48:01.896Z,12.43
2018-02-01T18:50:29.984Z,9.03
2018-02-01T18:52:58.313Z,9.53
2018-02-01T18:55:25.918Z,13.50
2018-02-01T18:57:53.520Z,8.77
2018-02-01T19:00:21.929Z,11.77
2018-02-01T19:02:49.563Z,14.23
2018-02-01T19:05:17.197Z,9.43
2018-02-01T19:07:45.541Z,11.57
2018-02-01T19:10:13.137Z,11.37
2018-02-01T19:12:41.487Z,9.27
2018-02-01T19:15:09.952Z,17.77
2018-02-01T19:17:37.542Z,15.27
2018-02-01T19:20:05.911Z,17.77
2018-02-01T19:22:33.533Z,15.53
2018-02-01T19:25:01.199Z,16.17
2018-02-01T19:27:28.788Z,32.70
2018-02-01T19:29:56.428Z,26.13
2018-02-01T19:32:24.127Z,30.67
2018-02-01T19:34:52.502Z,26.53
2018-02-01T19:37:20.878Z,24.23
2018-02-01T19:39:48.477Z,19.67
2018-02-01T19:42:16.146Z,23.30
2018-02-01T19:44:43.736Z,37.60
2018-02-01T19:47:11.345Z,36.17
2018-02-01T19:49:38.928Z,24.40
2018-02-01T19:52:07.307Z,19.73
2018-02-01T19:54:34.916Z,9.70
2018-02-01T19:57:02.500Z,13.93
2018-02-01T19:59:30.077Z,9.97
2018-02-01T20:01:57.650Z,9.37
2018-02-01T20:04:25.260Z,8.47
2018-02-01T20:06:52.840Z,6.93
2018-02-01T20:09:20.444Z,9.23
2018-02-01T20:11:48.793Z,5.30
2018-02-01T20:14:16.394Z,6.10
2018-02-01T20:16:43.988Z,8.10
2018-02-01T20:19:12.373Z,8.97
2018-02-01T20:21:40.760Z,10.03
2018-02-01T20:24:08.369Z,9.50
2018-02-01T20:26:35.980Z,9.20
2018-02-01T20:29:03.573Z,11.97
2018-02-01T20:31:31.144Z,7.00
2018-02-01T20:33:58.756Z,9.67
2018-02-01T20:36:27.117Z,8.90
2018-02-01T20:38:55.456Z,9.63
2018-02-01T20:41:23.054Z,7.70
2018-02-01T20:43:51.398Z,7.27
2018-02-01T20:46:18.997Z,8.23
2018-02-01T20:48:47.353Z,7.90
2018-02-01T20:51:15.283Z,6.87
2018-02-01T20:53:42.901Z,12.93
2018-02-01T20:56:11.293Z,11.17
2018-02-01T20:58:39.664Z,6.80
2018-02-01T21:01:08.013Z,7.93
2018-02-01T21:03:35.615Z,6.57
2018-02-01T21:06:03.213Z,5.80
2018-02-01T21:08:30.925Z,5.03
2018-02-01T21:10:59.317Z,9.23
2018-02-01T21:13:27.716Z,4.77
2018-02-01T21:15:55.292Z,5.83
2018-02-01T21:18:22.876Z,4.93
2018-02-01T21:20:50.472Z,5.87
2018-02-01T21:23:18.801Z,4.93
2018-02-01T21:25:46.400Z,7.17
2018-02-01T21:28:14.758Z,8.23
2018-02-01T21:30:42.364Z,8.30
2018-02-01T21:33:09.945Z,6.27
2018-02-01T21:35:37.833Z,4.83
2018-02-01T21:38:06.237Z,4.47
2018-02-01T21:40:34.589Z,7.20
2018-02-01T21:43:02.180Z,6.10
2018-02-01T21:45:30.528Z,7.27
2018-02-01T21:47:58.150Z,6.83
2018-02-01T21:50:25.746Z,3.80
2018-02-01T21:52:53.340Z,6.43
2018-02-01T21:55:21.693Z,5.57
2018-02-01T21:57:49.296Z,6.63
2018-02-01T22:00:17.278Z,7.50
2018-02-01T22:02:44.924Z,8.03
2018-02-01T22:05:12.502Z,7.07
2018-02-01T22:07:40.120Z,6.00
2018-02-01T22:10:07.713Z,7.63
2018-02-01T22:12:35.317Z,5.57
2018-02-01T22:15:02.908Z,9.07
2018-02-01T22:17:31.265Z,7.23
2018-02-01T22:19:58.864Z,7.90
2018-02-01T22:22:26.584Z,8.37
2018-02-01T22:24:54.177Z,7.63
2018-02-01T22:27:22.517Z,9.07
2018-02-01T22:29:50.125Z,7.07
2018-02-01T22:32:17.713Z,8.43
2018-02-01T22:34:45.300Z,7.13
2018-02-01T22:37:12.888Z,7.80
2018-02-01T22:39:41.250Z,10.00
2018-02-01T22:42:08.825Z,8.70
2018-02-01T22:44:37.189Z,7.70
2018-02-01T22:47:04.808Z,6.67
2018-02-01T22:49:32.392Z,6.80
2018-02-01T22:52:00.021Z,6.63
2018-02-01T22:54:27.612Z,11.67
2018-02-01T22:56:55.238Z,11.70
2018-02-01T22:59:22.837Z,14.63
2018-02-01T23:01:50.421Z,18.43
2018-02-01T23:04:18.077Z,13.83
2018-02-01T23:06:46.433Z,12.37
2018-02-01T23:09:14.034Z,6.20
2018-02-01T23:11:42.413Z,8.20
2018-02-01T23:14:10.774Z,8.83
2018-02-01T23:16:38.382Z,6.93
2018-02-01T23:19:05.984Z,10.83
2018-02-01T23:21:33.557Z,6.03
2018-02-01T23:24:01.146Z,4.73
2018-02-01T23:26:28.730Z,5.20
2018-02-01T23:28:56.376Z,5.57
2018-02-01T23:31:23.958Z,5.83
2018-02-01T23:33:51.547Z,5.67
2018-02-01T23:36:19.185Z,8.50
2018-02-01T23:38:46.779Z,4.43
2018-02-01T23:41:14.393Z,6.07
2018-02-01T23:43:41.992Z,11.77
2018-02-01T23:46:09.582Z,7.27
2018-02-01T23:48:37.173Z,7.00
2018-02-01T23:51:04.757Z,9.13
2018-02-01T23:53:32.346Z,5.97
2018-02-01T23:56:00.681Z,7.20
2018-02-01T23:58:29.033Z,5.03
